createdAt,value
2017-04-09T00:00:01.727Z,93.75
2017-04-09T00:01:01.782Z,93.76
2017-04-09T00:02:01.847Z,93.80
2017-04-09T00:03:01.799Z,93.83
2017-04-09T00:04:01.818Z,93.86
2017-04-09T00:05:01.847Z,93.89
2017-04-09T00:05:55.890Z,93.89
2017-04-09T00:06:56.934Z,93.89
2017-04-09T00:07:57.020Z,93.95
2017-04-09T00:08:57.035Z,93.95
2017-04-09T00:09:56.943Z,93.94
2017-04-09T00:10:57.000Z,93.93
2017-04-09T00:11:52.039Z,93.94
2017-04-09T00:12:46.076Z,93.96
2017-04-09T00:13:46.094Z,93.95
2017-04-09T00:14:41.093Z,93.99
2017-04-09T00:15:41.138Z,93.98
2017-04-09T00:16:35.162Z,93.98
2017-04-09T00:17:35.128Z,93.96
2017-04-09T00:18:30.268Z,94.01
2017-04-09T00:19:25.302Z,94.01
2017-04-09T00:20:25.290Z,94.00
2017-04-09T00:21:20.369Z,94.01
2017-04-09T00:22:15.346Z,93.98
2017-04-09T00:23:15.366Z,94.03
2017-04-09T00:24:10.480Z,94.03
2017-04-09T00:25:05.458Z,94.05
2017-04-09T00:26:06.438Z,94.03
2017-04-09T00:27:06.465Z,94.02
2017-04-09T00:28:06.505Z,94.03
2017-04-09T00:29:01.512Z,94.04
2017-04-09T00:29:55.578Z,94.05
2017-04-09T00:30:55.623Z,94.10
2017-04-09T00:31:50.608Z,94.04
2017-04-09T00:32:50.697Z,94.06
2017-04-09T00:33:44.683Z,94.08
2017-04-09T00:34:44.717Z,94.05
2017-04-09T00:35:39.719Z,94.07
2017-04-09T00:36:34.766Z,94.10
2017-04-09T00:37:35.063Z,94.07
2017-04-09T00:38:29.786Z,94.12
2017-04-09T00:39:24.852Z,94.10
2017-04-09T00:40:30.864Z,94.13
2017-04-09T00:41:24.869Z,94.12
2017-04-09T00:42:24.921Z,94.09
2017-04-09T00:43:20.174Z,94.12
2017-04-09T00:44:19.920Z,94.11
2017-04-09T00:45:13.996Z,94.11
2017-04-09T00:46:14.070Z,94.10
2017-04-09T00:47:09.082Z,94.10
2017-04-09T00:48:04.084Z,94.09
2017-04-09T00:49:04.106Z,94.10
2017-04-09T00:49:59.239Z,94.15
2017-04-09T00:50:54.190Z,94.15
2017-04-09T00:51:54.183Z,94.15
2017-04-09T00:52:49.261Z,94.17
2017-04-09T00:53:44.277Z,94.16
2017-04-09T00:54:45.260Z,94.21
2017-04-09T00:55:46.307Z,94.18
2017-04-09T00:56:41.348Z,94.17
2017-04-09T00:57:35.724Z,94.16
2017-04-09T00:58:35.575Z,94.20
2017-04-09T00:59:35.410Z,94.19
2017-04-09T01:00:30.450Z,94.18
2017-04-09T01:01:24.466Z,94.14
2017-04-09T01:02:24.521Z,94.13
2017-04-09T01:03:19.771Z,94.13
2017-04-09T01:04:14.591Z,94.15
2017-04-09T01:05:15.593Z,94.21
2017-04-09T01:06:15.585Z,94.21
2017-04-09T01:07:15.596Z,94.23
2017-04-09T01:08:15.682Z,94.23
2017-04-09T01:09:16.711Z,94.17
2017-04-09T01:10:17.683Z,94.21
2017-04-09T01:11:11.765Z,94.18
2017-04-09T01:12:11.752Z,94.19
2017-04-09T01:13:06.779Z,94.19
2017-04-09T01:14:01.801Z,94.22
2017-04-09T01:15:03.211Z,94.23
2017-04-09T01:16:08.887Z,94.25
2017-04-09T01:17:02.889Z,94.25
2017-04-09T01:18:02.939Z,94.20
2017-04-09T01:19:02.978Z,94.19
2017-04-09T01:19:57.972Z,94.20
2017-04-09T01:20:52.162Z,94.22
2017-04-09T01:21:53.058Z,94.23
2017-04-09T01:22:53.107Z,94.29
2017-04-09T01:23:48.094Z,94.30
2017-04-09T01:24:54.076Z,94.26
2017-04-09T01:25:49.085Z,94.26
2017-04-09T01:26:43.180Z,94.28
2017-04-09T01:27:43.230Z,94.21
2017-04-09T01:28:43.221Z,94.25
2017-04-09T01:29:43.296Z,94.25
2017-04-09T01:30:44.276Z,94.24
2017-04-09T01:31:45.355Z,94.24
2017-04-09T01:32:39.374Z,94.28
2017-04-09T01:33:39.369Z,94.29
2017-04-09T01:34:34.392Z,94.28
2017-04-09T01:35:29.415Z,94.27
2017-04-09T01:36:29.439Z,94.26
2017-04-09T01:37:24.545Z,94.25
2017-04-09T01:38:19.483Z,94.27
2017-04-09T01:39:19.623Z,94.27
2017-04-09T01:40:14.517Z,94.28
2017-04-09T01:41:09.580Z,94.26
2017-04-09T01:42:10.603Z,94.27
2017-04-09T01:43:10.679Z,94.28
2017-04-09T01:44:10.642Z,94.28
2017-04-09T01:45:05.672Z,94.33
2017-04-09T01:45:59.683Z,94.34
2017-04-09T01:46:59.749Z,94.29
2017-04-09T01:47:54.797Z,94.27
2017-04-09T01:48:54.785Z,94.27
2017-04-09T01:49:48.833Z,94.30
2017-04-09T01:50:48.843Z,94.27
2017-04-09T01:51:43.857Z,94.26
2017-04-09T01:52:38.924Z,94.30
2017-04-09T01:53:38.929Z,94.30
2017-04-09T01:54:34.070Z,94.30
2017-04-09T01:55:28.971Z,94.29
2017-04-09T01:56:30.004Z,94.29
2017-04-09T01:57:30.149Z,94.29
2017-04-09T01:58:30.063Z,94.33
2017-04-09T01:59:25.087Z,94.34
2017-04-09T02:00:19.110Z,94.34
2017-04-09T02:01:19.186Z,94.33
2017-04-09T02:02:14.169Z,94.30
2017-04-09T02:03:14.198Z,94.33
2017-04-09T02:04:08.201Z,94.33
2017-04-09T02:05:08.204Z,94.30
2017-04-09T02:06:03.316Z,94.32
2017-04-09T02:07:03.308Z,94.32
2017-04-09T02:08:03.314Z,94.31
2017-04-09T02:09:03.386Z,94.36
2017-04-09T02:09:57.421Z,94.37
2017-04-09T02:10:58.411Z,94.36
2017-04-09T02:11:59.462Z,94.36
2017-04-09T02:12:54.451Z,94.36
2017-04-09T02:13:48.474Z,94.40
2017-04-09T02:14:49.484Z,94.40
2017-04-09T02:15:50.598Z,94.40
2017-04-09T02:16:45.575Z,94.42
2017-04-09T02:17:39.553Z,94.40
2017-04-09T02:18:39.589Z,94.41
2017-04-09T02:19:39.600Z,94.42
2017-04-09T02:20:39.684Z,94.42
2017-04-09T02:21:45.689Z,94.45
2017-04-09T02:22:40.711Z,94.39
2017-04-09T02:23:40.749Z,94.37
2017-04-09T02:24:34.781Z,94.39
2017-04-09T02:25:34.805Z,94.38
2017-04-09T02:26:29.805Z,94.39
2017-04-09T02:27:29.859Z,94.39
2017-04-09T02:28:29.957Z,94.42
2017-04-09T02:29:29.891Z,94.45
2017-04-09T02:30:23.950Z,94.41
2017-04-09T02:31:23.978Z,94.41
2017-04-09T02:32:19.007Z,94.41
2017-04-09T02:33:13.973Z,94.46
2017-04-09T02:34:14.103Z,94.45
2017-04-09T02:35:09.097Z,94.46
2017-04-09T02:36:04.079Z,94.46
2017-04-09T02:37:04.104Z,94.44
2017-04-09T02:37:59.120Z,94.37
2017-04-09T02:38:54.189Z,94.39
2017-04-09T02:39:55.208Z,94.40
2017-04-09T02:40:55.192Z,94.35
2017-04-09T02:41:55.274Z,94.34
2017-04-09T02:42:50.277Z,94.33
2017-04-09T02:43:44.301Z,94.37
2017-04-09T02:44:44.367Z,94.38
2017-04-09T02:45:38.385Z,94.40
2017-04-09T02:46:26.372Z,94.41
2017-04-09T02:47:15.441Z,94.39
2017-04-09T02:48:09.445Z,94.41
2017-04-09T02:49:03.488Z,94.41
2017-04-09T02:49:52.506Z,94.41
2017-04-09T02:50:46.556Z,94.40
2017-04-09T02:51:40.603Z,94.39
2017-04-09T02:52:34.595Z,94.39
2017-04-09T02:53:22.683Z,94.38
2017-04-09T02:54:10.662Z,94.38
2017-04-09T02:54:58.744Z,94.37
2017-04-09T02:55:52.823Z,94.37
2017-04-09T02:56:46.783Z,94.36
2017-04-09T02:57:35.776Z,94.35
2017-04-09T02:58:29.878Z,94.38
2017-04-09T02:59:23.924Z,94.37
2017-04-09T03:00:12.920Z,94.36
2017-04-09T03:01:01.031Z,94.35
2017-04-09T03:01:54.991Z,94.36
2017-04-09T03:02:55.009Z,94.38
2017-04-09T03:03:44.009Z,94.39
2017-04-09T03:04:33.049Z,94.44
2017-04-09T03:05:21.110Z,94.43
2017-04-09T03:06:15.172Z,94.38
2017-04-09T03:07:09.227Z,94.36
2017-04-09T03:08:03.188Z,94.36
2017-04-09T03:09:04.230Z,94.36
2017-04-09T03:09:58.339Z,94.41
2017-04-09T03:10:58.293Z,94.41
2017-04-09T03:11:47.377Z,94.38
2017-04-09T03:12:36.375Z,94.39
2017-04-09T03:13:25.381Z,94.43
2017-04-09T03:14:25.413Z,94.43
2017-04-09T03:15:20.418Z,94.42
2017-04-09T03:16:20.463Z,94.42
2017-04-09T03:17:15.453Z,94.41
2017-04-09T03:18:10.497Z,94.39
2017-04-09T03:19:10.514Z,94.38
2017-04-09T03:20:05.582Z,94.36
2017-04-09T03:21:00.588Z,94.36
2017-04-09T03:22:01.614Z,94.37
2017-04-09T03:23:01.684Z,94.37
2017-04-09T03:24:01.686Z,94.39
2017-04-09T03:24:56.698Z,94.41
2017-04-09T03:25:50.718Z,94.35
2017-04-09T03:26:50.765Z,94.38
2017-04-09T03:27:45.811Z,94.38
2017-04-09T03:28:45.848Z,94.39
2017-04-09T03:29:39.839Z,94.38
2017-04-09T03:30:39.868Z,94.38
2017-04-09T03:31:34.887Z,94.38
2017-04-09T03:32:29.882Z,94.43
2017-04-09T03:33:29.870Z,94.43
2017-04-09T03:34:25.178Z,94.44
2017-04-09T03:35:20.291Z,94.45
2017-04-09T03:36:21.006Z,94.42
2017-04-09T03:37:21.006Z,94.45
2017-04-09T03:38:21.071Z,94.44
2017-04-09T03:39:16.058Z,94.44
2017-04-09T03:40:10.096Z,94.42
2017-04-09T03:41:11.147Z,94.41
2017-04-09T03:42:11.156Z,94.40
2017-04-09T03:43:11.188Z,94.40
2017-04-09T03:44:11.170Z,94.41
2017-04-09T03:45:17.274Z,94.44
2017-04-09T03:46:12.261Z,94.43
2017-04-09T03:47:12.278Z,94.40
2017-04-09T03:48:06.275Z,94.42
2017-04-09T03:49:06.381Z,94.40
2017-04-09T03:50:01.351Z,94.42
2017-04-09T03:50:56.408Z,94.46
2017-04-09T03:51:56.385Z,94.48
2017-04-09T03:52:51.415Z,94.45
2017-04-09T03:53:46.474Z,94.47
2017-04-09T03:54:46.493Z,94.45
2017-04-09T03:55:41.566Z,94.45
2017-04-09T03:56:36.586Z,94.44
2017-04-09T03:57:37.599Z,94.48
2017-04-09T03:58:37.615Z,94.45
2017-04-09T03:59:37.599Z,94.44
2017-04-09T04:00:32.674Z,94.48
2017-04-09T04:01:26.670Z,94.47
2017-04-09T04:02:26.756Z,94.46
2017-04-09T04:03:21.768Z,94.46
2017-04-09T04:04:21.778Z,94.48
2017-04-09T04:05:15.791Z,94.55
2017-04-09T04:06:16.808Z,94.57
2017-04-09T04:07:17.870Z,94.58
2017-04-09T04:08:12.923Z,94.58
2017-04-09T04:09:12.896Z,94.56
2017-04-09T04:10:12.900Z,94.55
2017-04-09T04:11:06.987Z,94.54
2017-04-09T04:12:06.966Z,94.53
2017-04-09T04:13:06.986Z,94.51
2017-04-09T04:14:02.011Z,94.56
2017-04-09T04:14:56.014Z,94.60
2017-04-09T04:15:57.119Z,94.56
2017-04-09T04:16:57.195Z,94.60
2017-04-09T04:17:52.111Z,94.56
2017-04-09T04:18:52.196Z,94.59
2017-04-09T04:19:46.198Z,94.62
2017-04-09T04:20:46.257Z,94.62
2017-04-09T04:21:41.202Z,94.63
2017-04-09T04:22:36.279Z,94.67
2017-04-09T04:23:36.321Z,94.63
2017-04-09T04:24:31.314Z,94.61
2017-04-09T04:25:26.391Z,94.60
2017-04-09T04:26:27.414Z,94.59
2017-04-09T04:27:27.370Z,94.60
2017-04-09T04:28:27.401Z,94.65
2017-04-09T04:29:27.443Z,94.63
2017-04-09T04:30:27.475Z,94.64
2017-04-09T04:31:27.513Z,94.63
2017-04-09T04:32:27.497Z,94.58
2017-04-09T04:33:27.511Z,94.57
2017-04-09T04:34:27.523Z,94.63
2017-04-09T04:35:27.658Z,94.62
2017-04-09T04:36:27.600Z,94.63
2017-04-09T04:37:28.625Z,94.66
2017-04-09T04:38:23.684Z,94.68
2017-04-09T04:39:17.709Z,94.69
2017-04-09T04:40:23.713Z,94.68
2017-04-09T04:41:17.777Z,94.66
2017-04-09T04:42:18.830Z,94.66
2017-04-09T04:43:13.820Z,94.66
2017-04-09T04:44:13.782Z,94.71
2017-04-09T04:45:13.864Z,94.71
2017-04-09T04:46:13.852Z,94.72
2017-04-09T04:47:13.977Z,94.76
2017-04-09T04:48:13.890Z,94.77
2017-04-09T04:49:13.916Z,94.77
2017-04-09T04:50:13.985Z,94.78
2017-04-09T04:51:13.985Z,94.78
2017-04-09T04:52:14.289Z,94.76
2017-04-09T04:53:20.010Z,94.79
2017-04-09T04:54:15.104Z,94.80
2017-04-09T04:55:09.086Z,94.79
2017-04-09T04:56:10.091Z,94.76
2017-04-09T04:57:11.147Z,94.80
2017-04-09T04:58:06.167Z,94.82
2017-04-09T04:59:06.194Z,94.85
2017-04-09T05:00:06.213Z,94.84
2017-04-09T05:01:06.265Z,94.84
2017-04-09T05:02:06.290Z,94.89
2017-04-09T05:03:06.276Z,94.89
2017-04-09T05:04:06.300Z,94.90
2017-04-09T05:05:06.388Z,94.89
2017-04-09T05:06:06.374Z,94.87
2017-04-09T05:07:06.398Z,94.87
2017-04-09T05:08:06.417Z,94.85
2017-04-09T05:09:06.455Z,94.85
2017-04-09T05:10:06.506Z,94.92
2017-04-09T05:11:06.491Z,94.93
2017-04-09T05:12:06.481Z,94.95
2017-04-09T05:13:06.540Z,94.95
2017-04-09T05:14:06.574Z,94.92
2017-04-09T05:15:06.591Z,94.92
2017-04-09T05:16:06.617Z,94.96
2017-04-09T05:17:06.648Z,94.95
2017-04-09T05:18:06.676Z,94.94
2017-04-09T05:19:06.712Z,94.97
2017-04-09T05:20:06.690Z,95.01
2017-04-09T05:21:06.770Z,94.98
2017-04-09T05:22:06.776Z,95.00
2017-04-09T05:23:06.811Z,95.05
2017-04-09T05:24:12.773Z,95.05
2017-04-09T05:25:07.837Z,95.07
2017-04-09T05:26:01.909Z,95.07
2017-04-09T05:27:01.921Z,95.09
2017-04-09T05:27:56.939Z,95.12
2017-04-09T05:28:51.964Z,95.10
2017-04-09T05:29:51.974Z,95.18
2017-04-09T05:30:47.015Z,95.18
2017-04-09T05:31:42.028Z,95.18
2017-04-09T05:32:36.082Z,95.18
2017-04-09T05:33:37.100Z,95.20
2017-04-09T05:34:32.097Z,95.21
2017-04-09T05:35:32.165Z,95.24
2017-04-09T05:36:32.145Z,95.23
2017-04-09T05:37:32.193Z,95.23
2017-04-09T05:38:32.270Z,95.28
2017-04-09T05:39:32.359Z,95.30
2017-04-09T05:40:32.429Z,95.36
2017-04-09T05:41:32.320Z,95.41
2017-04-09T05:42:32.353Z,95.46
2017-04-09T05:43:32.397Z,95.47
2017-04-09T05:44:32.408Z,95.51
2017-04-09T05:45:32.390Z,95.74
2017-04-09T05:46:32.446Z,95.82
2017-04-09T05:47:32.524Z,95.95
2017-04-09T05:48:32.556Z,96.05
2017-04-09T05:49:32.509Z,96.18
2017-04-09T05:50:32.495Z,96.26
2017-04-09T05:51:32.607Z,96.32
2017-04-09T05:52:38.582Z,96.36
2017-04-09T05:53:33.605Z,96.47
2017-04-09T05:54:27.684Z,96.46
2017-04-09T05:55:28.779Z,96.49
2017-04-09T05:56:29.712Z,96.53
2017-04-09T05:57:24.695Z,96.52
2017-04-09T05:58:24.791Z,96.54
2017-04-09T05:59:24.805Z,96.57
2017-04-09T06:00:24.909Z,96.60
2017-04-09T06:01:24.905Z,96.62
2017-04-09T06:02:24.932Z,96.58
2017-04-09T06:03:30.895Z,96.64
2017-04-09T06:04:25.942Z,96.63
2017-04-09T06:05:19.963Z,96.67
2017-04-09T06:06:20.008Z,96.65
2017-04-09T06:07:15.078Z,96.70
2017-04-09T06:08:10.208Z,96.71
2017-04-09T06:09:10.069Z,96.71
2017-04-09T06:10:05.152Z,96.66
2017-04-09T06:11:00.150Z,96.70
2017-04-09T06:11:54.193Z,96.72
2017-04-09T06:12:55.260Z,96.72
2017-04-09T06:13:50.296Z,96.72
2017-04-09T06:14:50.298Z,96.66
2017-04-09T06:15:50.359Z,96.67
2017-04-09T06:16:50.368Z,96.70
2017-04-09T06:17:50.414Z,96.67
2017-04-09T06:18:50.487Z,96.63
2017-04-09T06:19:50.472Z,96.58
2017-04-09T06:20:50.464Z,96.55
2017-04-09T06:21:50.518Z,96.50
2017-04-09T06:22:50.919Z,96.48
2017-04-09T06:23:50.602Z,96.39
2017-04-09T06:24:45.661Z,96.27
2017-04-09T06:25:40.768Z,96.27
2017-04-09T06:26:40.702Z,96.04
2017-04-09T06:27:35.775Z,95.96
2017-04-09T06:28:30.808Z,95.86
2017-04-09T06:29:24.774Z,95.72
2017-04-09T06:30:19.884Z,95.40
2017-04-09T06:31:13.879Z,95.12
2017-04-09T06:32:07.939Z,94.98
2017-04-09T06:33:07.966Z,94.83
2017-04-09T06:34:01.994Z,94.26
2017-04-09T06:34:50.063Z,93.32
2017-04-09T06:35:39.099Z,93.17
2017-04-09T06:36:27.199Z,93.15
2017-04-09T06:37:15.193Z,93.01
2017-04-09T06:38:04.286Z,93.03
2017-04-09T06:38:52.302Z,92.82
2017-04-09T06:39:40.368Z,92.21
2017-04-09T06:40:29.378Z,91.92
2017-04-09T06:41:17.399Z,91.75
2017-04-09T06:42:05.530Z,91.39
2017-04-09T06:42:54.530Z,90.17
2017-04-09T06:43:54.520Z,88.38
2017-04-09T06:44:48.621Z,86.39
2017-04-09T06:45:43.617Z,85.00
2017-04-09T06:46:43.674Z,84.19
2017-04-09T06:47:37.726Z,83.99
2017-04-09T06:48:38.753Z,83.07
2017-04-09T06:49:38.797Z,82.94
2017-04-09T06:50:33.862Z,83.01
2017-04-09T06:51:27.879Z,81.71
2017-04-09T06:52:22.858Z,80.92
2017-04-09T06:53:18.011Z,80.73
2017-04-09T06:54:11.979Z,80.68
2017-04-09T06:55:07.024Z,79.92
2017-04-09T06:56:06.996Z,80.34
2017-04-09T06:57:01.148Z,79.25
2017-04-09T06:58:01.171Z,78.80
2017-04-09T06:58:55.194Z,79.15
2017-04-09T06:59:56.205Z,78.30
2017-04-09T07:00:56.245Z,78.30
2017-04-09T07:01:51.294Z,78.43
2017-04-09T07:02:51.497Z,77.87
2017-04-09T07:03:51.396Z,77.40
2017-04-09T07:04:45.393Z,77.25
2017-04-09T07:05:40.444Z,77.69
2017-04-09T07:06:35.475Z,77.49
2017-04-09T07:07:29.526Z,76.83
2017-04-09T07:08:24.582Z,76.65
2017-04-09T07:09:25.626Z,75.99
2017-04-09T07:10:20.662Z,77.08
2017-04-09T07:11:15.661Z,77.34
2017-04-09T07:12:10.743Z,76.37
2017-04-09T07:13:10.770Z,75.18
2017-04-09T07:14:05.827Z,73.84
2017-04-09T07:15:00.887Z,73.01
2017-04-09T07:16:00.874Z,71.09
2017-04-09T07:17:00.915Z,71.17
2017-04-09T07:17:54.952Z,70.25
2017-04-09T07:18:50.030Z,70.99
2017-04-09T07:19:50.015Z,72.18
2017-04-09T07:20:45.096Z,71.85
2017-04-09T07:21:45.187Z,71.97
2017-04-09T07:22:40.240Z,72.60
2017-04-09T07:23:35.183Z,72.78
2017-04-09T07:24:29.285Z,71.39
2017-04-09T07:25:29.313Z,71.85
2017-04-09T07:26:24.367Z,71.41
2017-04-09T07:27:19.743Z,71.70
2017-04-09T07:28:19.429Z,71.64
2017-04-09T07:29:13.427Z,70.84
2017-04-09T07:30:07.514Z,70.27
2017-04-09T07:31:08.593Z,70.02
2017-04-09T07:32:08.601Z,69.97
2017-04-09T07:33:08.691Z,69.64
2017-04-09T07:34:08.721Z,70.16
2017-04-09T07:35:03.701Z,69.78
2017-04-09T07:35:58.787Z,70.34
2017-04-09T07:36:59.817Z,70.23
2017-04-09T07:37:54.883Z,69.74
2017-04-09T07:38:49.907Z,68.96
2017-04-09T07:39:43.918Z,69.13
2017-04-09T07:40:43.961Z,68.51
2017-04-09T07:41:38.026Z,68.74
2017-04-09T07:42:33.081Z,69.94
2017-04-09T07:43:34.095Z,70.55
2017-04-09T07:44:34.186Z,70.00
2017-04-09T07:45:34.212Z,69.88
2017-04-09T07:46:34.266Z,69.68
2017-04-09T07:47:34.297Z,68.87
2017-04-09T07:48:34.337Z,68.18
2017-04-09T07:49:29.364Z,69.38
2017-04-09T07:50:24.481Z,68.86
2017-04-09T07:51:24.470Z,67.31
2017-04-09T07:52:19.816Z,67.47
2017-04-09T07:53:14.540Z,65.67
2017-04-09T07:54:20.601Z,64.56
2017-04-09T07:55:15.651Z,63.35
2017-04-09T07:56:04.705Z,63.63
2017-04-09T07:57:10.758Z,63.79
2017-04-09T07:58:05.818Z,62.34
2017-04-09T07:58:59.807Z,62.86
2017-04-09T08:00:05.896Z,62.31
2017-04-09T08:01:00.887Z,62.28
2017-04-09T08:01:54.980Z,60.88
2017-04-09T08:02:49.365Z,61.19
2017-04-09T08:03:44.058Z,61.57
2017-04-09T08:04:39.062Z,62.94
2017-04-09T08:05:40.133Z,64.90
2017-04-09T08:06:40.211Z,64.50
2017-04-09T08:07:34.372Z,64.87
2017-04-09T08:08:34.323Z,66.67
2017-04-09T08:09:22.324Z,65.73
2017-04-09T08:10:22.410Z,66.54
2017-04-09T08:11:16.430Z,67.32
2017-04-09T08:12:10.502Z,65.63
2017-04-09T08:13:04.500Z,62.67
2017-04-09T08:14:04.538Z,62.72
2017-04-09T08:14:59.631Z,62.42
2017-04-09T08:15:53.705Z,62.07
2017-04-09T08:16:48.710Z,62.87
2017-04-09T08:17:50.118Z,64.23
2017-04-09T08:18:49.836Z,65.36
2017-04-09T08:19:44.859Z,66.12
2017-04-09T08:20:44.979Z,65.90
2017-04-09T08:21:39.924Z,65.63
2017-04-09T08:22:29.018Z,66.88
2017-04-09T08:23:29.045Z,66.21
2017-04-09T08:24:24.208Z,66.28
2017-04-09T08:25:24.124Z,65.75
2017-04-09T08:26:19.189Z,65.59
2017-04-09T08:27:19.265Z,64.39
2017-04-09T08:28:14.330Z,65.32
2017-04-09T08:29:09.338Z,64.03
2017-04-09T08:30:09.377Z,62.99
2017-04-09T08:31:04.411Z,61.48
2017-04-09T08:31:59.493Z,61.99
2017-04-09T08:32:53.516Z,61.49
2017-04-09T08:33:48.586Z,60.51
2017-04-09T08:34:49.617Z,60.57
2017-04-09T08:35:44.692Z,61.49
2017-04-09T08:36:39.716Z,61.66
2017-04-09T08:37:33.803Z,61.59
2017-04-09T08:38:28.796Z,60.99
2017-04-09T08:39:22.924Z,61.67
2017-04-09T08:40:17.927Z,60.85
2017-04-09T08:41:18.010Z,60.47
2017-04-09T08:42:13.017Z,61.65
2017-04-09T08:43:08.113Z,62.40
2017-04-09T08:44:02.099Z,62.91
2017-04-09T08:44:56.162Z,63.36
2017-04-09T08:45:50.221Z,63.36
2017-04-09T08:46:45.284Z,62.04
2017-04-09T08:47:46.327Z,62.61
2017-04-09T08:48:41.407Z,61.79
2017-04-09T08:49:41.486Z,62.72
2017-04-09T08:50:41.489Z,64.41
2017-04-09T08:51:41.513Z,63.65
2017-04-09T08:52:41.631Z,62.46
2017-04-09T08:53:41.668Z,62.03
2017-04-09T08:54:41.715Z,61.59
2017-04-09T08:55:41.716Z,61.96
2017-04-09T08:56:41.820Z,61.52
2017-04-09T08:57:35.833Z,61.97
2017-04-09T08:58:35.900Z,63.03
2017-04-09T08:59:30.929Z,62.57
2017-04-09T09:00:25.961Z,61.80
2017-04-09T09:01:19.978Z,61.41
2017-04-09T09:02:14.126Z,62.20
2017-04-09T09:03:08.118Z,60.58
2017-04-09T09:04:03.171Z,59.44
2017-04-09T09:04:51.247Z,59.65
2017-04-09T09:05:40.313Z,58.20
2017-04-09T09:06:35.405Z,55.22
2017-04-09T09:07:35.415Z,57.05
2017-04-09T09:08:30.487Z,57.45
2017-04-09T09:09:25.469Z,56.95
2017-04-09T09:10:19.577Z,56.10
2017-04-09T09:11:19.606Z,54.90
2017-04-09T09:12:13.702Z,54.78
2017-04-09T09:13:14.700Z,55.81
2017-04-09T09:14:14.773Z,56.44
2017-04-09T09:15:08.798Z,57.25
2017-04-09T09:16:08.882Z,57.67
2017-04-09T09:17:02.959Z,57.35
2017-04-09T09:18:03.985Z,56.79
2017-04-09T09:18:59.031Z,56.57
2017-04-09T09:19:59.092Z,56.04
2017-04-09T09:20:48.080Z,55.61
2017-04-09T09:21:37.220Z,55.60
2017-04-09T09:22:31.214Z,53.98
2017-04-09T09:23:26.657Z,54.60
2017-04-09T09:24:26.381Z,55.09
2017-04-09T09:25:26.378Z,56.12
2017-04-09T09:26:26.474Z,54.98
2017-04-09T09:27:14.479Z,54.14
2017-04-09T09:28:08.579Z,55.88
2017-04-09T09:29:02.605Z,53.52
2017-04-09T09:30:02.714Z,52.46
2017-04-09T09:30:51.755Z,53.54
2017-04-09T09:31:46.886Z,51.95
2017-04-09T09:32:40.880Z,52.39
2017-04-09T09:33:34.911Z,52.58
2017-04-09T09:34:29.966Z,52.07
2017-04-09T09:35:30.008Z,54.19
2017-04-09T09:36:19.081Z,53.34
2017-04-09T09:37:13.119Z,54.22
2017-04-09T09:38:01.188Z,55.43
2017-04-09T09:39:01.263Z,50.96
2017-04-09T09:39:55.292Z,51.24
2017-04-09T09:40:50.355Z,51.43
2017-04-09T09:41:45.371Z,52.89
2017-04-09T09:42:45.410Z,54.20
2017-04-09T09:43:45.503Z,54.91
2017-04-09T09:44:45.548Z,54.85
2017-04-09T09:45:45.600Z,54.56
2017-04-09T09:46:45.648Z,53.38
2017-04-09T09:47:45.732Z,53.21
2017-04-09T09:48:39.780Z,54.52
2017-04-09T09:49:34.825Z,51.67
2017-04-09T09:50:29.927Z,51.58
2017-04-09T09:51:25.013Z,52.10
2017-04-09T09:52:26.493Z,49.48
2017-04-09T09:53:21.077Z,50.57
2017-04-09T09:54:15.123Z,52.32
2017-04-09T09:55:15.183Z,53.91
2017-04-09T09:56:03.239Z,53.18
2017-04-09T09:56:57.296Z,52.00
2017-04-09T09:57:57.361Z,50.75
2017-04-09T09:58:51.422Z,51.75
2017-04-09T09:59:52.460Z,51.74
2017-04-09T10:00:46.492Z,52.39
2017-04-09T10:01:40.569Z,51.14
2017-04-09T10:02:29.561Z,48.52
2017-04-09T10:03:24.709Z,47.84
2017-04-09T10:04:18.721Z,47.85
2017-04-09T10:05:24.791Z,43.98
2017-04-09T10:06:13.860Z,46.75
2017-04-09T10:07:01.915Z,45.78
2017-04-09T10:07:57.315Z,43.44
2017-04-09T10:08:50.938Z,45.96
2017-04-09T10:09:45.112Z,46.88
2017-04-09T10:10:34.118Z,44.38
2017-04-09T10:11:28.453Z,44.72
2017-04-09T10:12:17.209Z,45.95
2017-04-09T10:13:11.313Z,45.19
2017-04-09T10:14:11.399Z,45.87
2017-04-09T10:15:06.410Z,47.41
2017-04-09T10:16:00.440Z,48.06
2017-04-09T10:16:55.485Z,51.57
2017-04-09T10:17:50.617Z,47.48
2017-04-09T10:18:39.658Z,47.86
2017-04-09T10:19:33.725Z,46.18
2017-04-09T10:20:28.793Z,46.02
2017-04-09T10:21:22.785Z,45.19
2017-04-09T10:22:11.883Z,45.40
2017-04-09T10:23:05.919Z,45.17
2017-04-09T10:23:55.007Z,45.12
2017-04-09T10:24:49.058Z,45.37
2017-04-09T10:25:49.186Z,45.05
2017-04-09T10:26:44.138Z,46.35
2017-04-09T10:27:33.210Z,46.38
2017-04-09T10:28:22.277Z,44.14
2017-04-09T10:29:10.305Z,43.81
2017-04-09T10:30:10.370Z,44.17
2017-04-09T10:30:58.429Z,44.83
2017-04-09T10:31:53.489Z,45.62
2017-04-09T10:32:54.525Z,47.86
2017-04-09T10:33:54.573Z,49.26
2017-04-09T10:34:48.673Z,49.71
2017-04-09T10:35:43.708Z,49.96
2017-04-09T10:36:37.780Z,46.90
2017-04-09T10:37:37.821Z,46.60
2017-04-09T10:38:25.856Z,46.95
2017-04-09T10:39:13.946Z,45.09
2017-04-09T10:40:03.016Z,46.55
2017-04-09T10:40:57.139Z,47.46
2017-04-09T10:41:57.152Z,46.83
2017-04-09T10:42:51.167Z,44.10
2017-04-09T10:43:45.190Z,45.18
2017-04-09T10:44:39.293Z,43.45
2017-04-09T10:45:28.350Z,40.94
2017-04-09T10:46:23.397Z,42.18
2017-04-09T10:47:18.455Z,41.00
2017-04-09T10:48:07.512Z,42.53
2017-04-09T10:49:08.572Z,42.74
2017-04-09T10:49:57.597Z,40.33
2017-04-09T10:50:46.670Z,39.80
2017-04-09T10:51:40.799Z,40.81
2017-04-09T10:52:29.754Z,40.31
2017-04-09T10:53:18.886Z,41.71
2017-04-09T10:54:06.916Z,45.04
2017-04-09T10:55:00.967Z,42.98
2017-04-09T10:55:55.061Z,40.70
2017-04-09T10:56:55.095Z,40.79
2017-04-09T10:57:44.172Z,41.97
2017-04-09T10:58:33.200Z,41.65
2017-04-09T10:59:22.252Z,44.11
2017-04-09T11:00:17.300Z,41.95
2017-04-09T11:01:05.385Z,42.83
2017-04-09T11:01:59.474Z,42.95
2017-04-09T11:02:48.569Z,42.20
2017-04-09T11:03:42.572Z,44.46
2017-04-09T11:04:36.603Z,42.46
2017-04-09T11:05:36.665Z,41.56
2017-04-09T11:06:30.722Z,39.86
2017-04-09T11:07:36.806Z,40.46
2017-04-09T11:08:30.876Z,39.75
2017-04-09T11:09:30.929Z,38.79
2017-04-09T11:10:20.015Z,39.68
2017-04-09T11:11:08.074Z,39.35
2017-04-09T11:12:02.162Z,39.06
2017-04-09T11:13:02.208Z,40.16
2017-04-09T11:13:56.294Z,39.57
2017-04-09T11:14:56.301Z,40.08
2017-04-09T11:15:51.421Z,39.23
2017-04-09T11:16:46.478Z,41.87
2017-04-09T11:17:35.477Z,39.21
2017-04-09T11:18:23.586Z,42.34
2017-04-09T11:19:11.643Z,42.24
2017-04-09T11:20:06.682Z,39.24
2017-04-09T11:21:01.803Z,40.14
2017-04-09T11:21:55.907Z,41.04
2017-04-09T11:22:55.947Z,37.10
2017-04-09T11:23:56.021Z,37.87
2017-04-09T11:24:50.096Z,39.47
2017-04-09T11:25:51.105Z,42.11
2017-04-09T11:26:46.205Z,42.08
2017-04-09T11:27:40.308Z,42.51
2017-04-09T11:28:29.338Z,42.19
2017-04-09T11:29:18.418Z,40.38
2017-04-09T11:30:12.407Z,39.63
2017-04-09T11:31:12.503Z,40.34
2017-04-09T11:32:06.555Z,39.89
2017-04-09T11:33:06.621Z,40.39
2017-04-09T11:34:00.665Z,43.30
2017-04-09T11:34:54.743Z,41.96
2017-04-09T11:35:42.793Z,39.87
2017-04-09T11:36:37.834Z,40.24
2017-04-09T11:37:37.909Z,43.06
2017-04-09T11:38:31.964Z,40.79
2017-04-09T11:39:27.379Z,41.09
2017-04-09T11:40:27.104Z,42.82
2017-04-09T11:41:21.092Z,43.73
2017-04-09T11:42:21.204Z,45.27
2017-04-09T11:43:16.287Z,43.05
2017-04-09T11:44:10.297Z,43.32
2017-04-09T11:44:59.376Z,41.21
2017-04-09T11:45:54.429Z,42.09
2017-04-09T11:46:48.494Z,42.69
2017-04-09T11:47:43.588Z,42.60
2017-04-09T11:48:37.631Z,38.73
2017-04-09T11:49:32.717Z,37.11
2017-04-09T11:50:20.814Z,37.50
2017-04-09T11:51:09.889Z,36.23
2017-04-09T11:52:10.974Z,37.26
2017-04-09T11:53:11.398Z,39.46
2017-04-09T11:54:11.089Z,37.75
2017-04-09T11:55:06.208Z,36.21
2017-04-09T11:56:00.198Z,39.14
2017-04-09T11:56:55.287Z,37.21
2017-04-09T11:57:43.378Z,36.30
2017-04-09T11:58:37.421Z,36.71
2017-04-09T11:59:37.486Z,38.84
2017-04-09T12:00:31.520Z,40.96
2017-04-09T12:01:26.586Z,41.08
2017-04-09T12:02:20.658Z,40.79
2017-04-09T12:03:15.712Z,39.62
2017-04-09T12:04:15.767Z,38.79
2017-04-09T12:05:10.805Z,39.02
2017-04-09T12:06:05.913Z,39.81
2017-04-09T12:07:00.002Z,39.48
2017-04-09T12:07:48.036Z,40.61